Aeroporto :
LOGIN :

Iscrizione | Disclaimer

   EN    FR    IT 

 










Sommario :    VFR   VFR Marginale   IFR   IFR Intensivo   IFR Molto Intensivo
Visibilità : 
Base nubi : 
>= 8 km
>= 3000ft
5 / 8 km
1000 / 3000 ft
1500m / 5 km
500 / 1000 ft
800 / 1500m
200 / 500 ft
< 800m
< 200 ft
Simboli :   Temporali  Nebbia  Neve Forte  Precipitazioni Forti  Vento > 20 kt
SIGMETs :   Varie  Temporali  Ghiacco  Turbolenza  Onda orograficha  Ceneri Vulcaniche






- Altitudine del aeroporto : 26 ft
- Codice IATA : BIA


LFKB - Bastia

ULTIMO METAR :
  • 231100Z AUTO VRB03KT 9999 BKN026 15/09 Q1030 NOSIG

METARs OBSOLETI :
  • 231030Z AUTO 11004KT 070V140 9999 SCT023 SCT220 15/10 Q1030 NOSIG
  • 231000Z AUTO 10004KT 060V150 CAVOK 15/10 Q1031 NOSIG
  • 230930Z AUTO 12004KT 070V170 CAVOK 14/09 Q1031 NOSIG
  • 230900Z AUTO VRB02KT CAVOK 13/08 Q1031 NOSIG
  • 230830Z AUTO 20004KT CAVOK 13/08 Q1031 NOSIG
  • 230800Z AUTO 24003KT CAVOK 11/07 Q1031 NOSIG

TAF TAF LFKB
Valido dal 23 a 09 ore il 24 a 09 ore UTC


230800Z 2309/2409 24004KT 9999 FEW025 TX16/2312Z TN06/2405Z
BECMG 2310/2311 13007KT BKN017
TEMPO 2318/2324 FEW020
BECMG 2319/2321 23004KT
ATIS : +33 4 95 59 19 40



MetMap, La meteo Aeronautica in un colpo d'occhio ! - Copyright ORBIFLY Dicembre 2007 - Disclaimer

ORBIFLY MET'MAP TEAM :

Programmazione e sviluppo : Alexandra Zaïnal
Concezione : Baudouin d'Aumeries
Aiuto per la programmazione : Marc-Olivier Méhu
Supporto tecnico e logistico : Manuel Goepfert
Aiuto per la traduzione : Arnaldo La Scala

Contatto : metmap@orbifly.com




FONTI E CREDITI :

   NOAA